sensor_id;sensor_type;location;lat;lon;timestamp;temperature;humidity
1948;DHT22;974;52.400;9.818;2023-03-04T00:00:53;4.30;99.90
1948;DHT22;974;52.400;9.818;2023-03-04T00:03:18;4.30;99.90
1948;DHT22;974;52.400;9.818;2023-03-04T00:05:44;4.30;99.90
1948;DHT22;974;52.400;9.818;2023-03-04T00:08:11;4.30;99.90
1948;DHT22;974;52.400;9.818;2023-03-04T00:10:37;4.30;99.90
1948;DHT22;974;52.400;9.818;2023-03-04T00:13:02;4.30;99.90
1948;DHT22;974;52.400;9.818;2023-03-04T00:15:28;4.30;99.90
1948;DHT22;974;52.400;9.818;2023-03-04T00:17:53;4.30;99.90
1948;DHT22;974;52.400;9.818;2023-03-04T00:20:19;4.40;99.90
1948;DHT22;974;52.400;9.818;2023-03-04T00:22:44;4.40;99.90
1948;DHT22;974;52.400;9.818;2023-03-04T00:25:09;4.40;99.90
1948;DHT22;974;52.400;9.818;2023-03-04T00:27:35;4.30;99.90
1948;DHT22;974;52.400;9.818;2023-03-04T00:30:00;4.40;99.90
1948;DHT22;974;52.400;9.818;2023-03-04T00:32:26;4.40;99.90
1948;DHT22;974;52.400;9.818;2023-03-04T00:34:51;4.40;99.90
1948;DHT22;974;52.400;9.818;2023-03-04T00:37:17;4.50;99.90
1948;DHT22;974;52.400;9.818;2023-03-04T00:39:42;4.50;99.90
1948;DHT22;974;52.400;9.818;2023-03-04T00:42:08;4.50;99.90
1948;DHT22;974;52.400;9.818;2023-03-04T00:44:33;4.60;99.90
1948;DHT22;974;52.400;9.818;2023-03-04T00:46:59;4.50;99.90
1948;DHT22;974;52.400;9.818;2023-03-04T00:49:24;4.50;99.90
1948;DHT22;974;52.400;9.818;2023-03-04T00:51:50;4.60;99.90
1948;DHT22;974;52.400;9.818;2023-03-04T00:54:16;4.50;99.90
1948;DHT22;974;52.400;9.818;2023-03-04T00:56:41;4.60;99.90
1948;DHT22;974;52.400;9.818;2023-03-04T00:59:07;4.60;99.90
1948;DHT22;974;52.400;9.818;2023-03-04T01:01:32;4.50;99.90
1948;DHT22;974;52.400;9.818;2023-03-04T01:03:57;4.50;99.90
1948;DHT22;974;52.400;9.818;2023-03-04T01:06:23;4.60;99.90
1948;DHT22;974;52.400;9.818;2023-03-04T01:08:48;4.60;99.90
1948;DHT22;974;52.400;9.818;2023-03-04T01:11:14;4.60;99.90
1948;DHT22;974;52.400;9.818;2023-03-04T01:13:40;4.50;99.90
1948;DHT22;974;52.400;9.818;2023-03-04T01:16:06;4.50;99.90
1948;DHT22;974;52.400;9.818;2023-03-04T01:18:32;4.60;99.90
1948;DHT22;974;52.400;9.818;2023-03-04T01:20:58;4.60;99.90
1948;DHT22;974;52.400;9.818;2023-03-04T01:23:23;4.60;99.90
1948;DHT22;974;52.400;9.818;2023-03-04T01:25:49;4.60;99.90
1948;DHT22;974;52.400;9.818;2023-03-04T01:28:14;4.60;99.90
1948;DHT22;974;52.400;9.818;2023-03-04T01:30:40;4.60;99.90
1948;DHT22;974;52.400;9.818;2023-03-04T01:33:05;4.60;99.90
1948;DHT22;974;52.400;9.818;2023-03-04T01:35:31;4.60;99.90
1948;DHT22;974;52.400;9.818;2023-03-04T01:37:56;4.60;99.90
1948;DHT22;974;52.400;9.818;2023-03-04T01:40:22;4.60;99.90
1948;DHT22;974;52.400;9.818;2023-03-04T01:42:47;4.70;99.90
1948;DHT22;974;52.400;9.818;2023-03-04T01:45:15;4.60;99.90
1948;DHT22;974;52.400;9.818;2023-03-04T01:47:44;4.70;99.90
1948;DHT22;974;52.400;9.818;2023-03-04T01:50:21;4.70;99.90
1948;DHT22;974;52.400;9.818;2023-03-04T01:52:47;4.70;99.90
1948;DHT22;974;52.400;9.818;2023-03-04T01:55:18;4.70;99.90
1948;DHT22;974;52.400;9.818;2023-03-04T01:57:45;4.70;99.90
1948;DHT22;974;52.400;9.818;2023-03-04T02:00:24;4.70;99.90
1948;DHT22;974;52.400;9.818;2023-03-04T02:02:54;4.70;99.90
1948;DHT22;974;52.400;9.818;2023-03-04T02:05:21;4.70;99.90
1948;DHT22;974;52.400;9.818;2023-03-04T02:07:48;4.70;99.90
1948;DHT22;974;52.400;9.818;2023-03-04T02:10:14;4.70;99.90
1948;DHT22;974;52.400;9.818;2023-03-04T02:12:40;4.70;99.90
1948;DHT22;974;52.400;9.818;2023-03-04T02:15:06;4.70;99.90
1948;DHT22;974;52.400;9.818;2023-03-04T02:17:32;4.80;99.90
1948;DHT22;974;52.400;9.818;2023-03-04T02:22:36;4.70;99.90
1948;DHT22;974;52.400;9.818;2023-03-04T02:25:06;4.80;99.90
1948;DHT22;974;52.400;9.818;2023-03-04T02:27:34;4.80;99.90
1948;DHT22;974;52.400;9.818;2023-03-04T02:29:59;4.80;99.90
1948;DHT22;974;52.400;9.818;2023-03-04T02:32:25;4.70;99.90
1948;DHT22;974;52.400;9.818;2023-03-04T02:34:50;4.80;99.90
1948;DHT22;974;52.400;9.818;2023-03-04T02:37:17;4.80;99.90
1948;DHT22;974;52.400;9.818;2023-03-04T02:39:45;4.70;99.90
1948;DHT22;974;52.400;9.818;2023-03-04T02:42:11;4.70;99.90
1948;DHT22;974;52.400;9.818;2023-03-04T02:44:42;4.80;99.90
1948;DHT22;974;52.400;9.818;2023-03-04T02:47:11;4.70;99.90
1948;DHT22;974;52.400;9.818;2023-03-04T02:49:38;4.80;99.90
1948;DHT22;974;52.400;9.818;2023-03-04T02:52:09;4.80;99.90
1948;DHT22;974;52.400;9.818;2023-03-04T02:54:38;4.80;99.90
1948;DHT22;974;52.400;9.818;2023-03-04T02:57:06;4.80;99.90
1948;DHT22;974;52.400;9.818;2023-03-04T02:59:32;4.80;99.90
1948;DHT22;974;52.400;9.818;2023-03-04T03:01:57;4.80;99.90
1948;DHT22;974;52.400;9.818;2023-03-04T03:04:23;4.80;99.90
1948;DHT22;974;52.400;9.818;2023-03-04T03:06:49;4.80;99.90
1948;DHT22;974;52.400;9.818;2023-03-04T03:09:15;4.80;99.90
1948;DHT22;974;52.400;9.818;2023-03-04T03:11:41;4.80;99.90
1948;DHT22;974;52.400;9.818;2023-03-04T03:14:06;4.90;99.90
1948;DHT22;974;52.400;9.818;2023-03-04T03:16:32;4.90;99.90
1948;DHT22;974;52.400;9.818;2023-03-04T03:18:57;4.90;99.90
1948;DHT22;974;52.400;9.818;2023-03-04T03:21:23;4.80;99.90
1948;DHT22;974;52.400;9.818;2023-03-04T03:23:48;4.80;99.90
1948;DHT22;974;52.400;9.818;2023-03-04T03:26:15;4.90;99.90
1948;DHT22;974;52.400;9.818;2023-03-04T03:28:40;4.80;99.90
1948;DHT22;974;52.400;9.818;2023-03-04T03:31:06;4.90;99.90
1948;DHT22;974;52.400;9.818;2023-03-04T03:33:31;4.80;99.90
1948;DHT22;974;52.400;9.818;2023-03-04T03:35:57;4.80;99.90
1948;DHT22;974;52.400;9.818;2023-03-04T03:38:22;4.90;99.90
1948;DHT22;974;52.400;9.818;2023-03-04T03:40:48;4.90;99.90
1948;DHT22;974;52.400;9.818;2023-03-04T03:43:13;4.80;99.90
1948;DHT22;974;52.400;9.818;2023-03-04T03:45:39;4.90;99.90
1948;DHT22;974;52.400;9.818;2023-03-04T03:48:04;4.90;99.90
1948;DHT22;974;52.400;9.818;2023-03-04T03:50:30;4.90;99.90
1948;DHT22;974;52.400;9.818;2023-03-04T03:52:56;4.90;99.90
1948;DHT22;974;52.400;9.818;2023-03-04T03:55:22;4.90;99.90
1948;DHT22;974;52.400;9.818;2023-03-04T03:57:47;4.80;99.90
1948;DHT22;974;52.400;9.818;2023-03-04T04:00:13;4.90;99.90
1948;DHT22;974;52.400;9.818;2023-03-04T04:02:39;4.80;99.90
1948;DHT22;974;52.400;9.818;2023-03-04T04:05:06;4.80;99.90
1948;DHT22;974;52.400;9.818;2023-03-04T04:07:31;4.80;99.90
1948;DHT22;974;52.400;9.818;2023-03-04T04:09:57;4.70;99.90
1948;DHT22;974;52.400;9.818;2023-03-04T04:12:22;4.80;99.90
1948;DHT22;974;52.400;9.818;2023-03-04T04:14:48;4.80;99.90
1948;DHT22;974;52.400;9.818;2023-03-04T04:17:13;4.90;99.90
1948;DHT22;974;52.400;9.818;2023-03-04T04:19:40;4.90;99.90
1948;DHT22;974;52.400;9.818;2023-03-04T04:22:07;4.90;99.90
1948;DHT22;974;52.400;9.818;2023-03-04T04:24:33;4.90;99.90
1948;DHT22;974;52.400;9.818;2023-03-04T04:26:59;4.90;99.90
1948;DHT22;974;52.400;9.818;2023-03-04T04:29:25;4.90;99.90
1948;DHT22;974;52.400;9.818;2023-03-04T04:31:51;4.90;99.90
1948;DHT22;974;52.400;9.818;2023-03-04T04:34:16;4.90;99.90
1948;DHT22;974;52.400;9.818;2023-03-04T04:36:42;4.90;99.90
1948;DHT22;974;52.400;9.818;2023-03-04T04:39:07;4.80;99.90
1948;DHT22;974;52.400;9.818;2023-03-04T04:41:40;4.80;99.90
1948;DHT22;974;52.400;9.818;2023-03-04T04:44:07;4.70;99.90
1948;DHT22;974;52.400;9.818;2023-03-04T04:46:33;4.80;99.90
1948;DHT22;974;52.400;9.818;2023-03-04T04:48:58;4.80;99.90
1948;DHT22;974;52.400;9.818;2023-03-04T04:51:24;4.70;99.90
1948;DHT22;974;52.400;9.818;2023-03-04T04:53:50;4.70;99.90
1948;DHT22;974;52.400;9.818;2023-03-04T04:56:20;4.70;99.90
1948;DHT22;974;52.400;9.818;2023-03-04T04:58:47;4.70;99.90
1948;DHT22;974;52.400;9.818;2023-03-04T05:01:13;4.60;99.90
1948;DHT22;974;52.400;9.818;2023-03-04T05:03:38;4.60;99.90
1948;DHT22;974;52.400;9.818;2023-03-04T05:06:05;4.60;99.90
1948;DHT22;974;52.400;9.818;2023-03-04T05:08:31;4.60;99.90
1948;DHT22;974;52.400;9.818;2023-03-04T05:10:57;4.60;99.90
1948;DHT22;974;52.400;9.818;2023-03-04T05:13:23;4.60;99.90
1948;DHT22;974;52.400;9.818;2023-03-04T05:15:52;4.60;99.90
1948;DHT22;974;52.400;9.818;2023-03-04T05:18:19;4.50;99.90
1948;DHT22;974;52.400;9.818;2023-03-04T05:20:52;4.50;99.90
1948;DHT22;974;52.400;9.818;2023-03-04T05:23:19;4.60;99.90
1948;DHT22;974;52.400;9.818;2023-03-04T05:25:44;4.50;99.90
1948;DHT22;974;52.400;9.818;2023-03-04T05:28:10;4.50;99.90
1948;DHT22;974;52.400;9.818;2023-03-04T05:30:37;4.50;99.90
1948;DHT22;974;52.400;9.818;2023-03-04T05:33:03;4.50;99.90
1948;DHT22;974;52.400;9.818;2023-03-04T05:35:29;4.40;99.90
1948;DHT22;974;52.400;9.818;2023-03-04T05:37:54;4.40;99.90
1948;DHT22;974;52.400;9.818;2023-03-04T05:40:20;4.40;99.90
1948;DHT22;974;52.400;9.818;2023-03-04T05:42:45;4.40;99.90
1948;DHT22;974;52.400;9.818;2023-03-04T05:45:11;4.40;99.90
1948;DHT22;974;52.400;9.818;2023-03-04T05:47:36;4.40;99.90
1948;DHT22;974;52.400;9.818;2023-03-04T05:50:02;4.40;99.90
1948;DHT22;974;52.400;9.818;2023-03-04T05:52:27;4.40;99.90
1948;DHT22;974;52.400;9.818;2023-03-04T05:54:53;4.40;99.90
1948;DHT22;974;52.400;9.818;2023-03-04T05:57:18;4.40;99.90
1948;DHT22;974;52.400;9.818;2023-03-04T05:59:44;4.40;99.90
1948;DHT22;974;52.400;9.818;2023-03-04T06:02:09;4.40;99.90
1948;DHT22;974;52.400;9.818;2023-03-04T06:04:35;4.40;99.90
1948;DHT22;974;52.400;9.818;2023-03-04T06:07:00;4.40;99.90
1948;DHT22;974;52.400;9.818;2023-03-04T06:09:26;4.50;99.90
1948;DHT22;974;52.400;9.818;2023-03-04T06:11:51;4.40;99.90
1948;DHT22;974;52.400;9.818;2023-03-04T06:14:17;4.40;99.90
1948;DHT22;974;52.400;9.818;2023-03-04T06:16:42;4.50;99.90
1948;DHT22;974;52.400;9.818;2023-03-04T06:19:08;4.50;99.90
1948;DHT22;974;52.400;9.818;2023-03-04T06:21:33;4.40;99.90
1948;DHT22;974;52.400;9.818;2023-03-04T06:23:59;4.50;99.90
1948;DHT22;974;52.400;9.818;2023-03-04T06:26:24;4.40;99.90
1948;DHT22;974;52.400;9.818;2023-03-04T06:28:50;4.40;99.90
1948;DHT22;974;52.400;9.818;2023-03-04T06:31:15;4.50;99.90
1948;DHT22;974;52.400;9.818;2023-03-04T06:33:41;4.40;99.90
1948;DHT22;974;52.400;9.818;2023-03-04T06:36:06;4.40;99.90
1948;DHT22;974;52.400;9.818;2023-03-04T06:38:32;4.30;99.90
1948;DHT22;974;52.400;9.818;2023-03-04T06:41:13;4.40;99.90
1948;DHT22;974;52.400;9.818;2023-03-04T06:43:39;4.40;99.90
1948;DHT22;974;52.400;9.818;2023-03-04T06:46:06;4.40;99.90
1948;DHT22;974;52.400;9.818;2023-03-04T06:48:32;4.40;99.90
1948;DHT22;974;52.400;9.818;2023-03-04T06:50:57;4.50;99.90
1948;DHT22;974;52.400;9.818;2023-03-04T06:53:23;4.40;99.90
1948;DHT22;974;52.400;9.818;2023-03-04T06:55:49;4.50;99.90
1948;DHT22;974;52.400;9.818;2023-03-04T06:58:14;4.50;99.90
1948;DHT22;974;52.400;9.818;2023-03-04T07:00:42;4.60;99.90
1948;DHT22;974;52.400;9.818;2023-03-04T07:03:10;4.50;99.90
1948;DHT22;974;52.400;9.818;2023-03-04T07:05:35;4.50;99.90
1948;DHT22;974;52.400;9.818;2023-03-04T07:08:01;4.60;99.90
1948;DHT22;974;52.400;9.818;2023-03-04T07:10:26;4.50;99.90
1948;DHT22;974;52.400;9.818;2023-03-04T07:12:52;4.60;99.90
1948;DHT22;974;52.400;9.818;2023-03-04T07:15:17;4.60;99.90
1948;DHT22;974;52.400;9.818;2023-03-04T07:17:43;4.60;99.90
1948;DHT22;974;52.400;9.818;2023-03-04T07:20:09;4.60;99.90
1948;DHT22;974;52.400;9.818;2023-03-04T07:22:35;4.60;99.90
1948;DHT22;974;52.400;9.818;2023-03-04T07:25:00;4.60;99.90
1948;DHT22;974;52.400;9.818;2023-03-04T07:27:26;4.60;99.90
1948;DHT22;974;52.400;9.818;2023-03-04T07:29:51;4.60;99.90
1948;DHT22;974;52.400;9.818;2023-03-04T07:32:17;4.70;99.90
1948;DHT22;974;52.400;9.818;2023-03-04T07:34:42;4.60;99.90
1948;DHT22;974;52.400;9.818;2023-03-04T07:37:07;4.60;99.90
1948;DHT22;974;52.400;9.818;2023-03-04T07:39:33;4.60;99.90
1948;DHT22;974;52.400;9.818;2023-03-04T07:41:58;4.70;99.90
1948;DHT22;974;52.400;9.818;2023-03-04T07:44:24;4.70;99.90
1948;DHT22;974;52.400;9.818;2023-03-04T07:46:49;4.80;99.90
1948;DHT22;974;52.400;9.818;2023-03-04T07:49:15;4.80;99.90
1948;DHT22;974;52.400;9.818;2023-03-04T07:51:41;4.80;99.90
1948;DHT22;974;52.400;9.818;2023-03-04T07:54:06;4.80;99.90
1948;DHT22;974;52.400;9.818;2023-03-04T07:56:32;4.80;99.90
1948;DHT22;974;52.400;9.818;2023-03-04T07:58:59;4.80;99.90
1948;DHT22;974;52.400;9.818;2023-03-04T08:01:33;4.80;99.90
1948;DHT22;974;52.400;9.818;2023-03-04T08:03:59;4.80;99.90
1948;DHT22;974;52.400;9.818;2023-03-04T08:06:26;4.90;99.90
1948;DHT22;974;52.400;9.818;2023-03-04T08:08:56;4.90;99.90
1948;DHT22;974;52.400;9.818;2023-03-04T08:11:22;5.00;99.90
1948;DHT22;974;52.400;9.818;2023-03-04T08:13:48;5.00;99.90
1948;DHT22;974;52.400;9.818;2023-03-04T08:16:16;4.90;99.90
1948;DHT22;974;52.400;9.818;2023-03-04T08:18:47;5.00;99.90
1948;DHT22;974;52.400;9.818;2023-03-04T08:21:14;4.90;99.90
1948;DHT22;974;52.400;9.818;2023-03-04T08:23:40;4.80;99.90
1948;DHT22;974;52.400;9.818;2023-03-04T08:26:11;4.80;99.90
1948;DHT22;974;52.400;9.818;2023-03-04T08:28:37;4.80;99.90
1948;DHT22;974;52.400;9.818;2023-03-04T08:31:03;4.80;99.90
1948;DHT22;974;52.400;9.818;2023-03-04T08:33:28;4.80;99.90
1948;DHT22;974;52.400;9.818;2023-03-04T08:35:54;4.90;99.90
1948;DHT22;974;52.400;9.818;2023-03-04T08:38:19;4.90;99.90
1948;DHT22;974;52.400;9.818;2023-03-04T08:40:45;5.00;99.90
1948;DHT22;974;52.400;9.818;2023-03-04T08:43:15;4.90;99.90
1948;DHT22;974;52.400;9.818;2023-03-04T08:45:41;4.80;99.90
1948;DHT22;974;52.400;9.818;2023-03-04T08:48:06;4.80;99.90
1948;DHT22;974;52.400;9.818;2023-03-04T08:50:32;4.80;99.90
1948;DHT22;974;52.400;9.818;2023-03-04T08:52:58;4.70;99.90
1948;DHT22;974;52.400;9.818;2023-03-04T08:55:23;4.70;99.90
1948;DHT22;974;52.400;9.818;2023-03-04T08:57:49;4.80;99.90
1948;DHT22;974;52.400;9.818;2023-03-04T09:00:14;4.90;99.90
1948;DHT22;974;52.400;9.818;2023-03-04T09:02:40;4.90;99.90
1948;DHT22;974;52.400;9.818;2023-03-04T09:05:07;4.90;99.90
1948;DHT22;974;52.400;9.818;2023-03-04T09:07:33;4.90;99.90
1948;DHT22;974;52.400;9.818;2023-03-04T09:09:58;4.80;99.90
1948;DHT22;974;52.400;9.818;2023-03-04T09:12:24;4.90;99.90
1948;DHT22;974;52.400;9.818;2023-03-04T09:14:49;4.90;99.90
1948;DHT22;974;52.400;9.818;2023-03-04T09:17:15;5.00;99.90
1948;DHT22;974;52.400;9.818;2023-03-04T09:19:41;5.00;99.90
1948;DHT22;974;52.400;9.818;2023-03-04T09:22:06;5.00;99.90
1948;DHT22;974;52.400;9.818;2023-03-04T09:24:31;5.10;99.90
1948;DHT22;974;52.400;9.818;2023-03-04T09:26:57;5.30;99.90
1948;DHT22;974;52.400;9.818;2023-03-04T09:29:22;5.40;99.90
1948;DHT22;974;52.400;9.818;2023-03-04T09:31:49;5.50;99.90
1948;DHT22;974;52.400;9.818;2023-03-04T09:34:14;5.60;99.90
1948;DHT22;974;52.400;9.818;2023-03-04T09:36:40;5.70;99.90
1948;DHT22;974;52.400;9.818;2023-03-04T09:39:05;5.60;99.90
1948;DHT22;974;52.400;9.818;2023-03-04T09:41:45;5.50;99.90
1948;DHT22;974;52.400;9.818;2023-03-04T09:44:40;5.50;99.90
1948;DHT22;974;52.400;9.818;2023-03-04T09:47:19;5.50;99.90
1948;DHT22;974;52.400;9.818;2023-03-04T09:49:55;5.40;99.90
1948;DHT22;974;52.400;9.818;2023-03-04T09:55:38;5.40;99.90
1948;DHT22;974;52.400;9.818;2023-03-04T09:58:37;5.50;99.90
1948;DHT22;974;52.400;9.818;2023-03-04T10:06:30;5.30;99.90
1948;DHT22;974;52.400;9.818;2023-03-04T10:09:02;5.50;99.90
1948;DHT22;974;52.400;9.818;2023-03-04T10:14:28;5.50;99.90
1948;DHT22;974;52.400;9.818;2023-03-04T10:19:40;5.60;99.90
1948;DHT22;974;52.400;9.818;2023-03-04T10:25:14;5.80;99.90
1948;DHT22;974;52.400;9.818;2023-03-04T10:27:41;5.70;99.90
1948;DHT22;974;52.400;9.818;2023-03-04T10:30:22;5.60;99.90
1948;DHT22;974;52.400;9.818;2023-03-04T10:32:50;5.50;99.90
1948;DHT22;974;52.400;9.818;2023-03-04T10:35:15;5.60;99.90
1948;DHT22;974;52.400;9.818;2023-03-04T10:37:45;5.60;99.90
1948;DHT22;974;52.400;9.818;2023-03-04T10:40:21;5.40;99.90
1948;DHT22;974;52.400;9.818;2023-03-04T10:42:48;5.40;99.90
1948;DHT22;974;52.400;9.818;2023-03-04T10:45:25;5.40;99.90
1948;DHT22;974;52.400;9.818;2023-03-04T10:47:54;5.40;99.90
1948;DHT22;974;52.400;9.818;2023-03-04T10:50:24;5.50;99.90
1948;DHT22;974;52.400;9.818;2023-03-04T10:52:50;5.60;99.90
1948;DHT22;974;52.400;9.818;2023-03-04T10:55:49;5.90;99.90
1948;DHT22;974;52.400;9.818;2023-03-04T10:58:16;5.90;99.90
1948;DHT22;974;52.400;9.818;2023-03-04T11:00:43;6.20;99.90
1948;DHT22;974;52.400;9.818;2023-03-04T11:06:05;6.00;99.90
1948;DHT22;974;52.400;9.818;2023-03-04T11:08:30;5.90;99.90
1948;DHT22;974;52.400;9.818;2023-03-04T11:10:56;5.60;99.90
1948;DHT22;974;52.400;9.818;2023-03-04T11:13:23;5.80;99.90
1948;DHT22;974;52.400;9.818;2023-03-04T11:16:04;5.60;99.90
1948;DHT22;974;52.400;9.818;2023-03-04T11:18:43;5.90;99.90
1948;DHT22;974;52.400;9.818;2023-03-04T11:21:20;5.80;99.90
1948;DHT22;974;52.400;9.818;2023-03-04T11:23:50;5.90;99.90
1948;DHT22;974;52.400;9.818;2023-03-04T11:26:35;6.00;99.90
1948;DHT22;974;52.400;9.818;2023-03-04T11:29:24;6.00;99.90
1948;DHT22;974;52.400;9.818;2023-03-04T11:37:21;6.40;99.90
1948;DHT22;974;52.400;9.818;2023-03-04T11:40:13;6.50;99.90
1948;DHT22;974;52.400;9.818;2023-03-04T11:42:57;6.50;99.90
1948;DHT22;974;52.400;9.818;2023-03-04T12:02:17;6.40;99.90
1948;DHT22;974;52.400;9.818;2023-03-04T12:05:03;6.30;99.90
1948;DHT22;974;52.400;9.818;2023-03-04T12:19:18;13.00;99.90
1948;DHT22;974;52.400;9.818;2023-03-04T12:22:16;12.70;99.90
1948;DHT22;974;52.400;9.818;2023-03-04T12:30:49;8.20;99.90
1948;DHT22;974;52.400;9.818;2023-03-04T12:39:40;7.20;99.90
1948;DHT22;974;52.400;9.818;2023-03-04T12:42:52;7.00;99.90
1948;DHT22;974;52.400;9.818;2023-03-04T12:45:46;7.00;99.90
1948;DHT22;974;52.400;9.818;2023-03-04T12:48:29;7.00;99.90
1948;DHT22;974;52.400;9.818;2023-03-04T12:51:05;6.80;99.90
1948;DHT22;974;52.400;9.818;2023-03-04T12:53:51;6.70;99.90
1948;DHT22;974;52.400;9.818;2023-03-04T12:56:43;6.50;99.90
1948;DHT22;974;52.400;9.818;2023-03-04T12:59:14;6.70;99.90
1948;DHT22;974;52.400;9.818;2023-03-04T13:01:52;6.60;99.90
1948;DHT22;974;52.400;9.818;2023-03-04T13:12:54;7.10;99.90
1948;DHT22;974;52.400;9.818;2023-03-04T13:20:18;6.60;99.90
1948;DHT22;974;52.400;9.818;2023-03-04T13:22:53;6.50;99.90
1948;DHT22;974;52.400;9.818;2023-03-04T13:25:47;6.80;99.90
1948;DHT22;974;52.400;9.818;2023-03-04T13:28:26;7.20;99.90
1948;DHT22;974;52.400;9.818;2023-03-04T13:41:28;6.70;99.90
1948;DHT22;974;52.400;9.818;2023-03-04T13:44:00;6.70;99.90
1948;DHT22;974;52.400;9.818;2023-03-04T13:51:28;6.40;99.90
1948;DHT22;974;52.400;9.818;2023-03-04T14:01:49;6.10;99.90
1948;DHT22;974;52.400;9.818;2023-03-04T14:04:22;6.10;99.90
1948;DHT22;974;52.400;9.818;2023-03-04T14:06:51;6.00;99.90
1948;DHT22;974;52.400;9.818;2023-03-04T14:09:25;6.10;99.90
1948;DHT22;974;52.400;9.818;2023-03-04T14:11:52;6.10;99.90
1948;DHT22;974;52.400;9.818;2023-03-04T14:14:21;6.20;99.90
1948;DHT22;974;52.400;9.818;2023-03-04T14:16:50;6.30;99.90
1948;DHT22;974;52.400;9.818;2023-03-04T14:19:31;6.30;99.90
1948;DHT22;974;52.400;9.818;2023-03-04T14:21:59;6.30;99.90
1948;DHT22;974;52.400;9.818;2023-03-04T14:24:25;6.10;99.90
1948;DHT22;974;52.400;9.818;2023-03-04T14:27:08;6.10;99.90
1948;DHT22;974;52.400;9.818;2023-03-04T14:29:34;6.20;99.90
1948;DHT22;974;52.400;9.818;2023-03-04T14:32:00;6.10;99.90
1948;DHT22;974;52.400;9.818;2023-03-04T14:34:35;6.20;99.90
1948;DHT22;974;52.400;9.818;2023-03-04T14:37:02;6.10;99.90
1948;DHT22;974;52.400;9.818;2023-03-04T14:39:32;6.10;99.90
1948;DHT22;974;52.400;9.818;2023-03-04T14:42:09;6.00;99.90
1948;DHT22;974;52.400;9.818;2023-03-04T14:44:42;5.80;99.90
1948;DHT22;974;52.400;9.818;2023-03-04T14:47:23;5.70;99.90
1948;DHT22;974;52.400;9.818;2023-03-04T14:49:52;5.80;99.90
1948;DHT22;974;52.400;9.818;2023-03-04T14:52:37;5.90;99.90
1948;DHT22;974;52.400;9.818;2023-03-04T14:57:53;6.10;99.90
1948;DHT22;974;52.400;9.818;2023-03-04T15:03:19;5.90;99.90
1948;DHT22;974;52.400;9.818;2023-03-04T15:05:46;6.10;99.90
1948;DHT22;974;52.400;9.818;2023-03-04T15:08:35;6.10;99.90
1948;DHT22;974;52.400;9.818;2023-03-04T15:11:04;6.00;99.90
1948;DHT22;974;52.400;9.818;2023-03-04T15:16:10;5.80;99.90
1948;DHT22;974;52.400;9.818;2023-03-04T15:18:37;5.80;99.90
1948;DHT22;974;52.400;9.818;2023-03-04T15:21:32;5.80;99.90
1948;DHT22;974;52.400;9.818;2023-03-04T15:23:59;5.70;99.90
1948;DHT22;974;52.400;9.818;2023-03-04T15:26:25;5.70;99.90
1948;DHT22;974;52.400;9.818;2023-03-04T15:28:51;5.60;99.90
1948;DHT22;974;52.400;9.818;2023-03-04T15:31:20;5.70;99.90
1948;DHT22;974;52.400;9.818;2023-03-04T15:33:46;5.50;99.90
1948;DHT22;974;52.400;9.818;2023-03-04T15:36:15;5.50;99.90
1948;DHT22;974;52.400;9.818;2023-03-04T15:38:44;5.50;99.90
1948;DHT22;974;52.400;9.818;2023-03-04T15:41:16;5.40;99.90
1948;DHT22;974;52.400;9.818;2023-03-04T15:43:42;5.30;99.90
1948;DHT22;974;52.400;9.818;2023-03-04T15:46:10;5.10;99.90
1948;DHT22;974;52.400;9.818;2023-03-04T15:48:36;5.20;99.90
1948;DHT22;974;52.400;9.818;2023-03-04T15:51:02;5.30;99.90
1948;DHT22;974;52.400;9.818;2023-03-04T15:53:32;5.30;99.90
1948;DHT22;974;52.400;9.818;2023-03-04T15:55:58;5.30;99.90
1948;DHT22;974;52.400;9.818;2023-03-04T15:58:25;5.30;99.90
1948;DHT22;974;52.400;9.818;2023-03-04T16:00:51;5.30;99.90
1948;DHT22;974;52.400;9.818;2023-03-04T16:03:19;5.30;99.90
1948;DHT22;974;52.400;9.818;2023-03-04T16:05:47;5.30;99.90
1948;DHT22;974;52.400;9.818;2023-03-04T16:08:16;5.20;99.90
1948;DHT22;974;52.400;9.818;2023-03-04T16:10:43;5.10;99.90
1948;DHT22;974;52.400;9.818;2023-03-04T16:13:16;5.10;99.90
1948;DHT22;974;52.400;9.818;2023-03-04T16:15:42;5.20;99.90
1948;DHT22;974;52.400;9.818;2023-03-04T16:18:09;5.20;99.90
1948;DHT22;974;52.400;9.818;2023-03-04T16:20:36;5.20;99.90
1948;DHT22;974;52.400;9.818;2023-03-04T16:23:02;5.10;99.90
1948;DHT22;974;52.400;9.818;2023-03-04T16:25:29;5.10;99.90
1948;DHT22;974;52.400;9.818;2023-03-04T16:27:56;5.10;99.90
1948;DHT22;974;52.400;9.818;2023-03-04T16:30:25;5.10;99.90
1948;DHT22;974;52.400;9.818;2023-03-04T16:32:50;5.00;99.90
1948;DHT22;974;52.400;9.818;2023-03-04T16:35:17;5.00;99.90
1948;DHT22;974;52.400;9.818;2023-03-04T16:37:44;4.90;99.90
1948;DHT22;974;52.400;9.818;2023-03-04T16:40:12;4.90;99.90
1948;DHT22;974;52.400;9.818;2023-03-04T16:42:38;4.90;99.90
1948;DHT22;974;52.400;9.818;2023-03-04T16:45:05;4.80;99.90
1948;DHT22;974;52.400;9.818;2023-03-04T16:47:31;4.90;99.90
1948;DHT22;974;52.400;9.818;2023-03-04T16:49:58;4.80;99.90
1948;DHT22;974;52.400;9.818;2023-03-04T16:52:29;4.80;99.90
1948;DHT22;974;52.400;9.818;2023-03-04T16:54:55;4.80;99.90
1948;DHT22;974;52.400;9.818;2023-03-04T16:57:22;4.80;99.90
1948;DHT22;974;52.400;9.818;2023-03-04T16:59:48;4.70;99.90
1948;DHT22;974;52.400;9.818;2023-03-04T17:02:15;4.80;99.90
1948;DHT22;974;52.400;9.818;2023-03-04T17:04:42;4.80;99.90
1948;DHT22;974;52.400;9.818;2023-03-04T17:07:08;4.70;99.90
1948;DHT22;974;52.400;9.818;2023-03-04T17:09:33;4.70;99.90
1948;DHT22;974;52.400;9.818;2023-03-04T17:11:59;4.70;99.90
1948;DHT22;974;52.400;9.818;2023-03-04T17:14:24;4.70;99.90
1948;DHT22;974;52.400;9.818;2023-03-04T17:16:50;4.70;99.90
1948;DHT22;974;52.400;9.818;2023-03-04T17:19:15;4.80;99.90
1948;DHT22;974;52.400;9.818;2023-03-04T17:21:41;4.80;99.90
1948;DHT22;974;52.400;9.818;2023-03-04T17:24:06;4.80;99.90
1948;DHT22;974;52.400;9.818;2023-03-04T17:26:33;4.80;99.90
1948;DHT22;974;52.400;9.818;2023-03-04T17:28:59;4.70;99.90
1948;DHT22;974;52.400;9.818;2023-03-04T17:31:24;4.80;99.90
1948;DHT22;974;52.400;9.818;2023-03-04T17:33:50;4.60;99.90
1948;DHT22;974;52.400;9.818;2023-03-04T17:36:17;4.70;99.90
1948;DHT22;974;52.400;9.818;2023-03-04T17:38:43;4.60;99.90
1948;DHT22;974;52.400;9.818;2023-03-04T17:41:11;4.50;99.90
1948;DHT22;974;52.400;9.818;2023-03-04T17:43:42;4.60;99.90
1948;DHT22;974;52.400;9.818;2023-03-04T17:46:10;4.60;99.90
1948;DHT22;974;52.400;9.818;2023-03-04T17:48:37;4.60;99.90
1948;DHT22;974;52.400;9.818;2023-03-04T17:51:03;4.70;99.90
1948;DHT22;974;52.400;9.818;2023-03-04T17:53:28;4.50;99.90
1948;DHT22;974;52.400;9.818;2023-03-04T17:55:59;4.60;99.90
1948;DHT22;974;52.400;9.818;2023-03-04T17:58:27;4.50;99.90
1948;DHT22;974;52.400;9.818;2023-03-04T18:00:58;4.50;99.90
1948;DHT22;974;52.400;9.818;2023-03-04T18:03:24;4.50;99.90
1948;DHT22;974;52.400;9.818;2023-03-04T18:05:49;4.50;99.90
1948;DHT22;974;52.400;9.818;2023-03-04T18:08:15;4.40;99.90
1948;DHT22;974;52.400;9.818;2023-03-04T18:10:40;4.50;99.90
1948;DHT22;974;52.400;9.818;2023-03-04T18:13:06;4.40;99.90
1948;DHT22;974;52.400;9.818;2023-03-04T18:15:33;4.40;99.90
1948;DHT22;974;52.400;9.818;2023-03-04T18:17:58;4.40;99.90
1948;DHT22;974;52.400;9.818;2023-03-04T18:20:24;4.50;99.90
1948;DHT22;974;52.400;9.818;2023-03-04T18:22:49;4.40;99.90
1948;DHT22;974;52.400;9.818;2023-03-04T18:25:15;4.40;99.90
1948;DHT22;974;52.400;9.818;2023-03-04T18:27:41;4.30;99.90
1948;DHT22;974;52.400;9.818;2023-03-04T18:30:08;4.30;99.90
1948;DHT22;974;52.400;9.818;2023-03-04T18:32:34;4.30;99.90
1948;DHT22;974;52.400;9.818;2023-03-04T18:34:59;4.30;99.90